Aérodrome :
LOGIN :

S'inscrire | Disclaimer

   EN    FR    IT 

 










Légende :    VFR   VFR Marginal   IFR   IFR Intensif   IFR Très Intensif
Visi : 
Plafond : 
>= 8 km
>= 3000ft
5 à 8 km
1000 à 3000 ft
1500m à 5 km
500 à 1000 ft
800 à 1500m
200 à 500 ft
< 800m
< 200 ft
Symboles :   Orages  Brouillard  Fortes neiges  Fortes précipitations  Vent > 20 kt
SIGMETs :   Divers  Orages  Givrage  Turbulence  Onde Orograph.  Cendres Volcan.







- Altitude de l'aérodrome : 231 ft
- Code IATA : WTN


EGXW - RAF Waddington

DERNIER METAR :
  • 221150Z 21024KT 9999 SCT026 BKN035 OVC220 15/10 Q0992 BLU NOSIG

METARs EXPIRÉS :
  • 221050Z 21026KT 9999 FEW025 SCT120 BKN200 14/10 Q0993 BLU NOSIG
  • 220950Z 20023G33KT 9999 FEW025 SCT040 BKN250 14/10 Q0993 BLU TEMPO SCT022 WHT

TAF TAF EGXW
Valide du 22 à 12h jusqu'au 23 à 06h UTC


221040Z 2212/2306 18026G40KT 9999 SCT025
BECMG 2221/2224 18020G30KT
PROB40
TEMPO 2221/2306 7000 RA BKN022
BECMG 2303/2306 23018G28KT
Pas de NOTAMs connus pour ce terrain.
2 SIGMETs publiés pour la FIR London (EGTT) :
 
Turbulence forte
EGTT SIGMET 05 VALID 221000/221400 EGRR
EGTT LONDON FIR SEV TURB FCST WI N4850 W00800 - N5100 W00800 - N5220 W00530 - N5345 W00530 - N5439 W00223 - N4932 W00435 - N4850 W00800 SFC/FL060 MOV ENE 15KT INTSF=
Onde orographique forte
EGTT SIGMET 04 VALID 221000/221400 EGRR
EGTT LONDON FIR SEV MTW FCST WI N5500 E00045 - N5412 E00110 - N5047 W00255 - N5045 W00430 - N5500 W00415 - N5500 W00100 - N5500 E00045 FL020/180 STNR INTSF=



MET'MAP, la Météo Aéronautique d'un coup d'oeil ! - Copyright ORBIFLY Décembre 2007 - Disclaimer

ORBIFLY MET'MAP TEAM :

Programmation & Développement : Alexandra Zaïnal
Conception & Développement : Baudouin d'Aumeries
Co-Programmation & Développement : Marc-Olivier Méhu
Soutien technique & logistique : Manuel Goepfert

Contact : metmap@orbifly.com




SOURCES & CREDITS :

   NOAA